Time;durP1;ratioP1;P1;durP2;ratioP2;P2;SDS_P1;SDS_P2;PMS_P1;PMS_P2;Temp;Humidity;BMP_temperature;BMP_pressure;BME280_temperature;BME280_humidity;BME280_pressure;Samples;Min_cycle;Max_cycle;Signal;HPM_P1;HPM_P2
2023/01/25 00:01:39;;;;;;;39.17;13.18;;;;;;;;;;5040798;28;20113;-79
2023/01/25 00:04:05;;;;;;;42.42;14.95;;;;;;;;;;5038744;28;20046;-78
2023/01/25 00:06:32;;;;;;;34.95;12.75;;;;;;;;;;5039451;28;20136;-78
2023/01/25 00:08:58;;;;;;;35.75;12.68;;;;;;;;;;5032298;28;20067;-79
2023/01/25 00:11:25;;;;;;;32.30;12.05;;;;;;;;;;5031167;28;20140;-79
2023/01/25 00:13:52;;;;;;;32.50;12.35;;;;;;;;;;5031033;28;20060;-79
2023/01/25 00:16:18;;;;;;;28.95;12.10;;;;;;;;;;5020922;28;20041;-78
2023/01/25 00:18:45;;;;;;;31.33;11.93;;;;;;;;;;5030196;28;20072;-78
2023/01/25 00:21:15;;;;;;;36.92;11.90;;;;;;;;;;5031965;28;20049;-78
2023/01/25 00:23:42;;;;;;;30.17;11.90;;;;;;;;;;5030587;28;20145;-80
2023/01/25 00:26:08;;;;;;;27.67;11.45;;;;;;;;;;5030158;28;20478;-79
2023/01/25 00:28:35;;;;;;;32.35;11.23;;;;;;;;;;5030739;28;20042;-79
2023/01/25 00:31:02;;;;;;;27.73;10.85;;;;;;;;;;5031563;28;20413;-80
2023/01/25 00:33:31;;;;;;;29.10;11.98;;;;;;;;;;5030778;28;20140;-80
2023/01/25 00:35:59;;;;;;;32.25;11.68;;;;;;;;;;5031505;28;20498;-79
2023/01/25 00:38:30;;;;;;;30.20;10.88;;;;;;;;;;5030965;28;20053;-79
2023/01/25 00:40:56;;;;;;;31.85;10.88;;;;;;;;;;5031908;28;20052;-79
2023/01/25 00:43:23;;;;;;;32.60;11.63;;;;;;;;;;5031286;28;20121;-79
2023/01/25 00:45:49;;;;;;;32.35;11.95;;;;;;;;;;5030828;28;20525;-79
2023/01/25 00:48:16;;;;;;;36.13;12.77;;;;;;;;;;5031600;28;20420;-80
2023/01/25 00:50:42;;;;;;;32.15;12.25;;;;;;;;;;5032941;28;20057;-78
2023/01/25 00:53:09;;;;;;;33.03;11.65;;;;;;;;;;5030715;28;20132;-80
2023/01/25 00:55:35;;;;;;;32.45;11.63;;;;;;;;;;5030707;28;20067;-80
2023/01/25 00:58:02;;;;;;;32.95;12.10;;;;;;;;;;5030206;28;20077;-79
2023/01/25 01:00:28;;;;;;;32.40;11.65;;;;;;;;;;5029917;28;20045;-80
2023/01/25 01:02:54;;;;;;;31.20;12.02;;;;;;;;;;5030965;28;20075;-80
2023/01/25 01:05:21;;;;;;;32.45;11.45;;;;;;;;;;5030909;28;20041;-79
2023/01/25 01:07:48;;;;;;;36.80;12.75;;;;;;;;;;5029635;28;20077;-78
2023/01/25 01:10:14;;;;;;;33.33;13.18;;;;;;;;;;5029155;28;20049;-78
2023/01/25 01:12:41;;;;;;;37.90;14.57;;;;;;;;;;5030153;28;20466;-77
2023/01/25 01:15:10;;;;;;;39.47;13.93;;;;;;;;;;5027635;28;20049;-78
2023/01/25 01:17:36;;;;;;;40.67;14.52;;;;;;;;;;5029932;28;20053;-80
2023/01/25 01:20:03;;;;;;;35.80;13.15;;;;;;;;;;5030593;28;20079;-77
2023/01/25 01:22:30;;;;;;;37.53;13.75;;;;;;;;;;5031107;28;20049;-78
2023/01/25 01:24:56;;;;;;;41.67;13.90;;;;;;;;;;5031522;28;20060;-78
2023/01/25 01:27:22;;;;;;;33.72;12.80;;;;;;;;;;5031825;28;20077;-78
2023/01/25 01:29:49;;;;;;;39.08;13.90;;;;;;;;;;5030297;28;20353;-78
2023/01/25 01:32:15;;;;;;;36.80;12.98;;;;;;;;;;5031856;28;20053;-78
2023/01/25 01:34:43;;;;;;;35.42;13.55;;;;;;;;;;5031273;28;20049;-78
2023/01/25 01:37:10;;;;;;;33.55;12.98;;;;;;;;;;5032234;28;20451;-78
2023/01/25 01:39:36;;;;;;;31.08;12.30;;;;;;;;;;5032416;28;20060;-77
2023/01/25 01:42:03;;;;;;;33.78;13.00;;;;;;;;;;5033825;28;20060;-78
2023/01/25 01:44:42;;;;;;;32.90;12.57;;;;;;;;;;5029327;28;20045;-79
2023/01/25 01:47:12;;;;;;;32.70;11.85;;;;;;;;;;5030322;28;20369;-78
2023/01/25 01:49:41;;;;;;;36.78;12.98;;;;;;;;;;5030753;28;20057;-78
2023/01/25 01:52:15;;;;;;;31.77;11.25;;;;;;;;;;5029503;28;20508;-79
2023/01/25 01:55:14;;;;;;;33.38;12.77;;;;;;;;;;5031080;28;20057;-79
2023/01/25 01:57:42;;;;;;;30.02;11.57;;;;;;;;;;5001206;28;20390;-78
2023/01/25 02:00:11;;;;;;;30.25;11.30;;;;;;;;;;5033337;28;20466;-79
2023/01/25 02:02:38;;;;;;;28.40;11.20;;;;;;;;;;5034784;28;20117;-78
2023/01/25 02:05:07;;;;;;;31.02;11.88;;;;;;;;;;5033292;28;20430;-77
2023/01/25 02:07:36;;;;;;;30.92;11.90;;;;;;;;;;5033052;28;20046;-78
2023/01/25 02:10:03;;;;;;;29.77;12.23;;;;;;;;;;5031187;28;20045;-79
2023/01/25 02:12:30;;;;;;;29.20;10.57;;;;;;;;;;5035379;28;20118;-78
2023/01/25 02:14:57;;;;;;;30.75;12.18;;;;;;;;;;5024966;28;20050;-78
2023/01/25 02:17:25;;;;;;;28.77;11.68;;;;;;;;;;5034663;28;20117;-77
2023/01/25 02:19:54;;;;;;;27.25;9.95;;;;;;;;;;5034462;28;20065;-79
2023/01/25 02:22:23;;;;;;;22.08;9.27;;;;;;;;;;5035209;28;20204;-78
2023/01/25 02:25:03;;;;;;;24.92;9.45;;;;;;;;;;5034722;28;20505;-80
2023/01/25 02:27:29;;;;;;;26.08;10.25;;;;;;;;;;5035176;28;20118;-79
2023/01/25 02:29:56;;;;;;;24.10;9.50;;;;;;;;;;5034090;28;20049;-79
2023/01/25 02:32:22;;;;;;;24.88;9.48;;;;;;;;;;5034891;28;20160;-79
2023/01/25 02:34:49;;;;;;;24.85;9.98;;;;;;;;;;5034345;28;20064;-79
2023/01/25 02:37:15;;;;;;;24.13;9.77;;;;;;;;;;5027955;28;20052;-79
2023/01/25 02:39:44;;;;;;;21.80;8.77;;;;;;;;;;4998457;28;20081;-76
2023/01/25 02:42:11;;;;;;;22.77;9.35;;;;;;;;;;5015590;28;20068;-79
2023/01/25 02:44:37;;;;;;;21.95;9.00;;;;;;;;;;5013338;28;20149;-79
2023/01/25 02:47:04;;;;;;;26.65;9.43;;;;;;;;;;5015680;28;20046;-78
2023/01/25 02:49:33;;;;;;;28.33;10.15;;;;;;;;;;5015611;28;20050;-80
2023/01/25 02:51:59;;;;;;;23.33;8.73;;;;;;;;;;5015030;28;20060;-78
2023/01/25 02:54:26;;;;;;;21.73;9.52;;;;;;;;;;5015667;28;20054;-79
2023/01/25 02:56:55;;;;;;;30.55;10.07;;;;;;;;;;5015400;28;20125;-78
2023/01/25 02:59:21;;;;;;;23.35;10.10;;;;;;;;;;5015199;28;20054;-79
2023/01/25 03:01:48;;;;;;;21.38;10.05;;;;;;;;;;4997418;28;20050;-78
2023/01/25 03:04:15;;;;;;;24.75;9.63;;;;;;;;;;5037855;28;20045;-78
2023/01/25 03:06:44;;;;;;;26.38;10.02;;;;;;;;;;5054048;28;20120;-77
2023/01/25 03:09:11;;;;;;;22.40;9.93;;;;;;;;;;5054031;28;20040;-80
2023/01/25 03:11:40;;;;;;;28.10;10.18;;;;;;;;;;5053514;28;20072;-77
2023/01/25 03:14:07;;;;;;;24.92;9.40;;;;;;;;;;5042092;28;20045;-78
2023/01/25 03:16:33;;;;;;;24.30;10.25;;;;;;;;;;5033553;28;20060;-77
2023/01/25 03:19:00;;;;;;;24.40;10.30;;;;;;;;;;5033631;28;20098;-78
2023/01/25 03:21:26;;;;;;;25.90;11.07;;;;;;;;;;5034364;28;20107;-78
2023/01/25 03:23:54;;;;;;;26.38;9.90;;;;;;;;;;5033769;28;20087;-79
2023/01/25 03:26:21;;;;;;;24.23;9.45;;;;;;;;;;5033604;28;20056;-77
2023/01/25 03:28:47;;;;;;;24.20;9.45;;;;;;;;;;5033772;28;20046;-77
2023/01/25 03:31:15;;;;;;;24.58;9.27;;;;;;;;;;5034092;28;20049;-77
2023/01/25 03:33:41;;;;;;;25.65;9.90;;;;;;;;;;5033247;28;20063;-78
2023/01/25 03:36:08;;;;;;;28.20;10.02;;;;;;;;;;5032532;28;20115;-77
2023/01/25 03:38:35;;;;;;;26.77;9.73;;;;;;;;;;5031726;28;20108;-78
2023/01/25 03:41:02;;;;;;;24.70;9.80;;;;;;;;;;5023406;28;20104;-78
2023/01/25 03:43:29;;;;;;;23.77;9.63;;;;;;;;;;5032373;28;20072;-78
2023/01/25 03:45:57;;;;;;;27.55;10.68;;;;;;;;;;5031598;28;20109;-80
2023/01/25 03:48:24;;;;;;;29.80;11.00;;;;;;;;;;5030896;28;20088;-78
2023/01/25 03:50:51;;;;;;;26.13;11.05;;;;;;;;;;5032806;28;20099;-78
2023/01/25 03:53:28;;;;;;;30.17;11.52;;;;;;;;;;5034868;28;20429;-77
2023/01/25 03:55:59;;;;;;;26.92;10.90;;;;;;;;;;5034678;28;20100;-77
2023/01/25 03:58:25;;;;;;;26.58;11.80;;;;;;;;;;5034965;28;20049;-78
2023/01/25 04:00:56;;;;;;;31.58;12.52;;;;;;;;;;5034481;28;20053;-79
2023/01/25 04:03:26;;;;;;;29.33;12.77;;;;;;;;;;5037353;28;20069;-78
2023/01/25 04:05:56;;;;;;;33.78;13.45;;;;;;;;;;5038050;28;20046;-78
2023/01/25 04:08:23;;;;;;;33.45;14.07;;;;;;;;;;5037374;28;20041;-79
2023/01/25 04:10:54;;;;;;;33.85;13.68;;;;;;;;;;5038467;28;20057;-78
2023/01/25 04:13:21;;;;;;;34.25;13.63;;;;;;;;;;5035458;28;20049;-78
2023/01/25 04:15:47;;;;;;;29.75;13.15;;;;;;;;;;5036534;28;20046;-78
2023/01/25 04:18:14;;;;;;;32.65;13.70;;;;;;;;;;5035573;28;20045;-79
2023/01/25 04:20:41;;;;;;;34.08;13.57;;;;;;;;;;5037461;28;20139;-78
2023/01/25 04:23:08;;;;;;;32.72;13.55;;;;;;;;;;5034829;28;20535;-79
2023/01/25 04:25:35;;;;;;;35.28;14.02;;;;;;;;;;5033063;28;20064;-79
2023/01/25 04:28:02;;;;;;;34.05;14.05;;;;;;;;;;5032995;28;20049;-78
2023/01/25 04:30:28;;;;;;;31.30;13.45;;;;;;;;;;5033607;28;20045;-79
2023/01/25 04:32:56;;;;;;;30.45;13.18;;;;;;;;;;5033577;28;20062;-77
2023/01/25 04:35:22;;;;;;;30.13;13.32;;;;;;;;;;5033623;28;20049;-78
2023/01/25 04:37:53;;;;;;;25.58;11.27;;;;;;;;;;5031933;28;20065;-79
2023/01/25 04:40:19;;;;;;;33.83;13.52;;;;;;;;;;5032096;28;20049;-79
2023/01/25 04:42:47;;;;;;;30.52;12.32;;;;;;;;;;5032419;28;20067;-79
2023/01/25 04:45:15;;;;;;;28.30;13.07;;;;;;;;;;5033041;28;20125;-79
2023/01/25 04:47:42;;;;;;;30.70;12.75;;;;;;;;;;5034875;28;20077;-78
2023/01/25 04:50:08;;;;;;;30.10;11.88;;;;;;;;;;5033973;28;20072;-78
2023/01/25 04:52:35;;;;;;;25.65;11.77;;;;;;;;;;5032750;28;20064;-78
2023/01/25 04:55:01;;;;;;;27.10;11.35;;;;;;;;;;5043192;28;20057;-78
2023/01/25 04:57:28;;;;;;;28.35;11.75;;;;;;;;;;5052966;28;20068;-78
2023/01/25 04:59:54;;;;;;;28.58;11.68;;;;;;;;;;5052513;28;20056;-78
2023/01/25 05:02:22;;;;;;;31.38;13.35;;;;;;;;;;5034824;28;20056;-80
2023/01/25 05:04:50;;;;;;;32.20;13.75;;;;;;;;;;5053352;28;20077;-79
2023/01/25 05:07:16;;;;;;;33.72;14.85;;;;;;;;;;5054428;28;20064;-78
2023/01/25 05:09:43;;;;;;;35.78;15.32;;;;;;;;;;5034323;28;20052;-80
2023/01/25 05:12:12;;;;;;;36.95;16.65;;;;;;;;;;5052856;28;20045;-78
2023/01/25 05:14:38;;;;;;;30.52;13.40;;;;;;;;;;5036505;28;20056;-79
2023/01/25 05:17:05;;;;;;;35.40;14.85;;;;;;;;;;5030585;28;20116;-79
2023/01/25 05:19:32;;;;;;;35.53;15.25;;;;;;;;;;5035632;28;20113;-79
2023/01/25 05:21:59;;;;;;;37.35;15.60;;;;;;;;;;5033204;28;20077;-76
2023/01/25 05:24:32;;;;;;;34.00;16.05;;;;;;;;;;5029216;28;20191;-76
2023/01/25 05:26:59;;;;;;;32.15;14.77;;;;;;;;;;5032485;28;20132;-76
2023/01/25 05:29:28;;;;;;;33.72;15.35;;;;;;;;;;5033254;28;20275;-80
2023/01/25 05:31:55;;;;;;;36.15;14.85;;;;;;;;;;5037653;28;20058;-79
2023/01/25 05:34:22;;;;;;;33.97;14.32;;;;;;;;;;5037788;28;20049;-80
2023/01/25 05:36:49;;;;;;;32.42;14.35;;;;;;;;;;5044071;28;20053;-78
2023/01/25 05:39:15;;;;;;;35.40;15.15;;;;;;;;;;5037987;28;20056;-80
2023/01/25 05:41:41;;;;;;;34.45;15.13;;;;;;;;;;5035436;28;20091;-80
2023/01/25 05:44:08;;;;;;;31.40;13.88;;;;;;;;;;5035612;28;20129;-81
2023/01/25 05:46:34;;;;;;;34.65;15.38;;;;;;;;;;5035400;28;20420;-79
2023/01/25 05:49:01;;;;;;;30.88;14.73;;;;;;;;;;5038366;28;20498;-77
2023/01/25 05:51:27;;;;;;;40.00;16.17;;;;;;;;;;5033341;28;20053;-79
2023/01/25 05:53:55;;;;;;;35.63;15.00;;;;;;;;;;5033649;28;20049;-79
2023/01/25 05:56:24;;;;;;;56.95;22.98;;;;;;;;;;5028466;28;20072;-79
2023/01/25 05:58:54;;;;;;;41.30;16.65;;;;;;;;;;5031931;28;20500;-80
2023/01/25 06:01:23;;;;;;;34.90;15.70;;;;;;;;;;5021350;28;20121;-79
2023/01/25 06:03:50;;;;;;;34.42;14.65;;;;;;;;;;5021432;28;20063;-80
2023/01/25 06:06:17;;;;;;;34.33;14.73;;;;;;;;;;5017234;28;20103;-79
2023/01/25 06:08:43;;;;;;;32.85;14.05;;;;;;;;;;5026258;28;20049;-80
2023/01/25 06:11:12;;;;;;;39.42;15.02;;;;;;;;;;5025196;28;20506;-80
2023/01/25 06:13:38;;;;;;;33.30;14.15;;;;;;;;;;5026208;28;20280;-80
2023/01/25 06:16:05;;;;;;;30.90;12.80;;;;;;;;;;5024308;28;20391;-80
2023/01/25 06:18:32;;;;;;;30.52;12.40;;;;;;;;;;5024455;28;20061;-80
2023/01/25 06:20:59;;;;;;;26.35;11.77;;;;;;;;;;5024294;28;20041;-80
2023/01/25 06:23:25;;;;;;;27.58;11.07;;;;;;;;;;5021334;28;20493;-81
2023/01/25 06:25:55;;;;;;;26.13;11.00;;;;;;;;;;5022726;28;20205;-80
2023/01/25 06:28:21;;;;;;;24.90;10.52;;;;;;;;;;5021694;28;20052;-80
2023/01/25 06:30:48;;;;;;;26.23;10.32;;;;;;;;;;5009134;28;20049;-80
2023/01/25 06:33:14;;;;;;;27.70;11.20;;;;;;;;;;5025391;28;20237;-78
2023/01/25 06:35:42;;;;;;;27.05;11.68;;;;;;;;;;5030429;28;20073;-80
2023/01/25 06:38:08;;;;;;;27.17;10.45;;;;;;;;;;5025513;28;20049;-78
2023/01/25 06:40:34;;;;;;;24.38;10.27;;;;;;;;;;5022081;28;20061;-78
2023/01/25 06:43:08;;;;;;;27.95;10.80;;;;;;;;;;5021927;28;20137;-79
2023/01/25 06:45:34;;;;;;;25.27;10.88;;;;;;;;;;5025254;28;20271;-78
2023/01/25 06:48:00;;;;;;;22.95;10.55;;;;;;;;;;5020877;28;20048;-79
2023/01/25 06:50:27;;;;;;;24.10;10.43;;;;;;;;;;5027186;28;20051;-78
2023/01/25 06:52:56;;;;;;;23.73;11.00;;;;;;;;;;5030331;28;20663;-78
2023/01/25 06:55:23;;;;;;;28.35;10.95;;;;;;;;;;5024268;28;20557;-78
2023/01/25 06:57:49;;;;;;;27.60;10.63;;;;;;;;;;5033648;28;20056;-78
2023/01/25 07:00:16;;;;;;;29.08;10.77;;;;;;;;;;5031598;28;20046;-78
2023/01/25 07:02:42;;;;;;;28.20;10.73;;;;;;;;;;5032483;28;20486;-78
2023/01/25 07:05:09;;;;;;;27.40;11.32;;;;;;;;;;5032343;28;20080;-79
2023/01/25 07:07:36;;;;;;;30.52;11.85;;;;;;;;;;5032553;28;20051;-79
2023/01/25 07:10:02;;;;;;;27.00;10.88;;;;;;;;;;5040016;28;20046;-77
2023/01/25 07:12:30;;;;;;;29.08;11.88;;;;;;;;;;5033559;28;20080;-79
2023/01/25 07:14:56;;;;;;;29.73;11.65;;;;;;;;;;5030781;28;20057;-78
2023/01/25 07:17:23;;;;;;;26.60;11.38;;;;;;;;;;5032519;28;20136;-79
2023/01/25 07:19:49;;;;;;;29.25;12.82;;;;;;;;;;5035130;28;20057;-79
2023/01/25 07:22:16;;;;;;;30.02;12.75;;;;;;;;;;5034965;28;20064;-78
2023/01/25 07:24:48;;;;;;;32.17;12.63;;;;;;;;;;5033369;28;20050;-78
2023/01/25 07:27:15;;;;;;;31.02;12.70;;;;;;;;;;5033626;28;20052;-79
2023/01/25 07:29:42;;;;;;;29.48;12.23;;;;;;;;;;5031159;28;20050;-78
2023/01/25 07:32:10;;;;;;;27.77;12.70;;;;;;;;;;5031535;28;20052;-79
2023/01/25 07:34:37;;;;;;;32.92;12.32;;;;;;;;;;5033335;28;20131;-79
2023/01/25 07:37:04;;;;;;;32.22;12.93;;;;;;;;;;5032356;28;20046;-78
2023/01/25 07:39:30;;;;;;;32.30;12.55;;;;;;;;;;5030650;28;20052;-79
2023/01/25 07:41:56;;;;;;;29.58;12.55;;;;;;;;;;5032147;28;20056;-81
2023/01/25 07:44:23;;;;;;;34.05;11.90;;;;;;;;;;5033986;28;20052;-78
2023/01/25 07:46:49;;;;;;;27.88;12.20;;;;;;;;;;5032209;28;20052;-79
2023/01/25 07:49:16;;;;;;;32.78;13.27;;;;;;;;;;5031321;28;20045;-79
2023/01/25 07:51:43;;;;;;;31.42;13.32;;;;;;;;;;5033322;28;20080;-79
2023/01/25 07:54:10;;;;;;;38.15;14.27;;;;;;;;;;5032621;28;20069;-78
2023/01/25 07:56:39;;;;;;;31.98;12.45;;;;;;;;;;5033727;28;20180;-78
2023/01/25 07:59:08;;;;;;;31.85;12.10;;;;;;;;;;5032423;28;20080;-79
2023/01/25 08:01:35;;;;;;;30.52;12.23;;;;;;;;;;5032440;28;20057;-78
2023/01/25 08:04:03;;;;;;;27.50;11.82;;;;;;;;;;5033125;28;20056;-80
2023/01/25 08:06:34;;;;;;;34.45;13.50;;;;;;;;;;5033997;28;20500;-79
2023/01/25 08:09:03;;;;;;;26.60;11.65;;;;;;;;;;5032508;28;20099;-79
2023/01/25 08:11:30;;;;;;;32.78;12.90;;;;;;;;;;5033438;28;20449;-79
2023/01/25 08:13:57;;;;;;;31.77;13.80;;;;;;;;;;5031752;28;20049;-79
2023/01/25 08:16:25;;;;;;;36.88;14.77;;;;;;;;;;5032136;28;20060;-78
2023/01/25 08:18:53;;;;;;;40.15;14.77;;;;;;;;;;5030764;28;20053;-78
2023/01/25 08:21:23;;;;;;;37.55;14.55;;;;;;;;;;5031181;28;20056;-78
2023/01/25 08:23:49;;;;;;;30.25;14.48;;;;;;;;;;5028803;28;20045;-78
2023/01/25 08:26:16;;;;;;;35.05;13.98;;;;;;;;;;5031356;28;20046;-80
2023/01/25 08:28:43;;;;;;;35.72;14.80;;;;;;;;;;5033224;28;20053;-80
2023/01/25 08:31:11;;;;;;;37.22;14.02;;;;;;;;;;5032438;28;20049;-78
2023/01/25 08:33:37;;;;;;;36.85;14.02;;;;;;;;;;5032419;28;20132;-79
2023/01/25 08:36:04;;;;;;;40.80;15.38;;;;;;;;;;5032734;28;20379;-80
2023/01/25 08:38:31;;;;;;;30.38;12.95;;;;;;;;;;5031481;28;20164;-80
2023/01/25 08:41:11;;;;;;;31.98;13.40;;;;;;;;;;5032872;28;20140;-79
2023/01/25 08:43:38;;;;;;;36.40;14.52;;;;;;;;;;5031531;28;20125;-79
2023/01/25 08:46:05;;;;;;;43.38;16.45;;;;;;;;;;5031168;28;20123;-79
2023/01/25 08:48:31;;;;;;;42.10;17.02;;;;;;;;;;5030992;28;20108;-79
2023/01/25 08:50:58;;;;;;;45.70;19.15;;;;;;;;;;5032427;28;20041;-79
2023/01/25 08:53:28;;;;;;;46.10;19.50;;;;;;;;;;5029937;28;20053;-80
2023/01/25 08:55:54;;;;;;;31.63;13.68;;;;;;;;;;5031223;28;20175;-79
2023/01/25 08:58:21;;;;;;;35.17;14.75;;;;;;;;;;5030584;28;20054;-79
2023/01/25 09:00:48;;;;;;;29.63;13.38;;;;;;;;;;5030986;28;20052;-79
2023/01/25 09:03:14;;;;;;;28.85;12.15;;;;;;;;;;5031553;28;20053;-80
2023/01/25 09:05:41;;;;;;;26.10;11.68;;;;;;;;;;5018819;28;20087;-79
2023/01/25 09:08:09;;;;;;;26.52;11.13;;;;;;;;;;5034258;28;20052;-79
2023/01/25 09:10:35;;;;;;;26.13;11.40;;;;;;;;;;5035616;28;20053;-79
2023/01/25 09:13:01;;;;;;;23.38;11.02;;;;;;;;;;5035617;28;20045;-79
2023/01/25 09:15:28;;;;;;;27.10;11.65;;;;;;;;;;5034583;28;20061;-79
2023/01/25 09:17:55;;;;;;;29.58;11.95;;;;;;;;;;5035240;28;20045;-79
2023/01/25 09:20:22;;;;;;;24.42;10.43;;;;;;;;;;5035116;28;20056;-79
2023/01/25 09:22:48;;;;;;;22.25;9.75;;;;;;;;;;5034228;28;20049;-79
2023/01/25 09:25:15;;;;;;;25.77;10.25;;;;;;;;;;5034574;28;20049;-79
2023/01/25 09:27:41;;;;;;;22.90;10.48;;;;;;;;;;5034754;28;20051;-79
2023/01/25 09:30:11;;;;;;;23.73;9.90;;;;;;;;;;5034182;28;20056;-79
2023/01/25 09:32:44;;;;;;;25.77;10.65;;;;;;;;;;5035185;28;20053;-79
2023/01/25 09:35:10;;;;;;;30.55;12.05;;;;;;;;;;5033481;28;20058;-79
2023/01/25 09:37:37;;;;;;;28.10;12.55;;;;;;;;;;5036635;28;20117;-78
2023/01/25 09:40:06;;;;;;;31.00;12.27;;;;;;;;;;5035911;28;20060;-79
2023/01/25 09:42:42;;;;;;;28.10;12.02;;;;;;;;;;5034943;28;20049;-79
2023/01/25 09:45:20;;;;;;;29.15;12.73;;;;;;;;;;5031865;28;20053;-79
2023/01/25 09:47:47;;;;;;;34.25;13.70;;;;;;;;;;5034007;28;20472;-79
2023/01/25 09:50:33;;;;;;;29.25;12.55;;;;;;;;;;5034271;28;20046;-79
2023/01/25 09:53:18;;;;;;;30.58;13.65;;;;;;;;;;5033752;28;20060;-79
2023/01/25 09:55:49;;;;;;;34.47;13.65;;;;;;;;;;5034034;28;20049;-79
2023/01/25 09:58:25;;;;;;;37.65;16.42;;;;;;;;;;5033945;28;20061;-79
2023/01/25 10:00:54;;;;;;;43.55;17.95;;;;;;;;;;5033178;28;20462;-79
2023/01/25 10:03:21;;;;;;;38.58;16.65;;;;;;;;;;5033549;28;20083;-80
2023/01/25 10:05:49;;;;;;;43.38;17.45;;;;;;;;;;5037953;28;20045;-79
2023/01/25 10:08:34;;;;;;;35.70;16.27;;;;;;;;;;5040243;28;20136;-78
2023/01/25 10:11:05;;;;;;;40.90;16.55;;;;;;;;;;5041019;28;20069;-79
2023/01/25 10:13:31;;;;;;;39.33;16.10;;;;;;;;;;5040533;28;20121;-79
2023/01/25 10:16:00;;;;;;;36.60;15.93;;;;;;;;;;5038977;28;20049;-79
2023/01/25 10:18:32;;;;;;;33.22;14.32;;;;;;;;;;5032670;28;20119;-79
2023/01/25 10:21:03;;;;;;;34.08;14.32;;;;;;;;;;5034261;28;20113;-79
2023/01/25 10:23:40;;;;;;;35.85;15.20;;;;;;;;;;5031538;28;20128;-79
2023/01/25 10:26:12;;;;;;;36.30;14.98;;;;;;;;;;5034217;28;20096;-79
2023/01/25 10:28:41;;;;;;;31.92;13.10;;;;;;;;;;5032648;28;20049;-78
2023/01/25 10:31:16;;;;;;;31.33;13.60;;;;;;;;;;5032583;28;20113;-79
2023/01/25 10:33:43;;;;;;;30.02;12.45;;;;;;;;;;5033221;28;20136;-79
2023/01/25 10:36:14;;;;;;;27.08;12.68;;;;;;;;;;5033356;28;20143;-78
2023/01/25 10:38:56;;;;;;;30.70;11.63;;;;;;;;;;5030683;28;20075;-79
2023/01/25 10:41:37;;;;;;;33.13;14.77;;;;;;;;;;5031263;28;20075;-79
2023/01/25 10:44:22;;;;;;;37.53;14.93;;;;;;;;;;5040427;28;20041;-78
2023/01/25 10:46:52;;;;;;;38.60;16.88;;;;;;;;;;5034615;28;20060;-78
2023/01/25 10:49:34;;;;;;;33.72;15.30;;;;;;;;;;5035839;28;20055;-80
2023/01/25 10:52:15;;;;;;;39.28;16.10;;;;;;;;;;5040003;28;20140;-77
2023/01/25 10:54:42;;;;;;;29.20;12.52;;;;;;;;;;5045083;28;20052;-77
2023/01/25 10:57:13;;;;;;;28.55;12.55;;;;;;;;;;5046538;28;20102;-78
2023/01/25 10:59:42;;;;;;;31.42;13.60;;;;;;;;;;5044957;28;20050;-80
2023/01/25 11:02:24;;;;;;;34.72;14.40;;;;;;;;;;5045570;28;20076;-79
2023/01/25 11:04:51;;;;;;;37.08;14.32;;;;;;;;;;5050396;28;20059;-79
2023/01/25 11:07:27;;;;;;;33.88;14.30;;;;;;;;;;5040141;28;20057;-80
2023/01/25 11:09:54;;;;;;;25.98;12.02;;;;;;;;;;5031765;28;20072;-80
2023/01/25 11:12:20;;;;;;;29.58;12.02;;;;;;;;;;5031578;28;20311;-80
2023/01/25 11:14:50;;;;;;;30.00;13.20;;;;;;;;;;5030608;28;20050;-78
2023/01/25 11:17:20;;;;;;;28.73;12.15;;;;;;;;;;5033586;28;20136;-78
2023/01/25 11:19:46;;;;;;;27.38;12.43;;;;;;;;;;5033498;28;20152;-78
2023/01/25 11:22:23;;;;;;;29.58;13.13;;;;;;;;;;5034380;28;20053;-77
2023/01/25 11:24:49;;;;;;;28.10;11.98;;;;;;;;;;5032899;28;20053;-79
2023/01/25 11:27:23;;;;;;;30.27;12.98;;;;;;;;;;5033378;28;20128;-78
2023/01/25 11:30:10;;;;;;;34.90;13.32;;;;;;;;;;5031856;28;20112;-78
2023/01/25 11:32:38;;;;;;;39.03;16.08;;;;;;;;;;5034248;28;20333;-78
2023/01/25 11:35:14;;;;;;;48.45;16.58;;;;;;;;;;5035214;28;20477;-78
2023/01/25 11:37:53;;;;;;;46.22;17.58;;;;;;;;;;5032888;28;20109;-78
2023/01/25 11:40:33;;;;;;;44.47;17.95;;;;;;;;;;5031373;28;20057;-78
2023/01/25 11:42:59;;;;;;;43.13;17.23;;;;;;;;;;5032706;28;20431;-79
2023/01/25 11:45:44;;;;;;;40.33;15.43;;;;;;;;;;5032219;28;20054;-79
2023/01/25 11:48:27;;;;;;;31.20;12.55;;;;;;;;;;5031052;28;20053;-79
2023/01/25 11:50:56;;;;;;;34.70;13.90;;;;;;;;;;5033132;28;20052;-79
2023/01/25 11:53:42;;;;;;;30.98;12.15;;;;;;;;;;5031307;28;20589;-79
2023/01/25 11:56:11;;;;;;;39.13;15.18;;;;;;;;;;5032617;28;20049;-79
2023/01/25 11:58:41;;;;;;;49.05;18.98;;;;;;;;;;5031453;28;20091;-79
2023/01/25 12:01:16;;;;;;;51.20;20.40;;;;;;;;;;5032183;28;20077;-79
2023/01/25 12:03:49;;;;;;;50.10;20.23;;;;;;;;;;5031088;28;20108;-79
2023/01/25 12:06:15;;;;;;;52.60;20.33;;;;;;;;;;5036474;28;20068;-78
2023/01/25 12:08:51;;;;;;;54.35;21.17;;;;;;;;;;5033737;28;20064;-78
2023/01/25 12:11:30;;;;;;;55.38;21.60;;;;;;;;;;5033208;28;20053;-78
2023/01/25 12:14:15;;;;;;;54.15;20.38;;;;;;;;;;5034816;28;20076;-78
2023/01/25 12:16:45;;;;;;;60.80;22.33;;;;;;;;;;5026265;28;20056;-79
2023/01/25 12:19:17;;;;;;;57.03;21.50;;;;;;;;;;5031652;28;20049;-79
2023/01/25 12:21:47;;;;;;;56.80;21.13;;;;;;;;;;5031846;28;20430;-79
2023/01/25 12:24:22;;;;;;;52.42;20.48;;;;;;;;;;5033309;28;20053;-79
2023/01/25 12:26:55;;;;;;;61.35;21.58;;;;;;;;;;5042557;28;20115;-79
2023/01/25 12:29:21;;;;;;;49.78;19.83;;;;;;;;;;5046100;28;20048;-79
2023/01/25 12:31:59;;;;;;;55.35;21.65;;;;;;;;;;5032212;28;20121;-80
2023/01/25 12:34:26;;;;;;;63.95;21.98;;;;;;;;;;5031694;28;20049;-80
2023/01/25 12:36:52;;;;;;;50.72;19.60;;;;;;;;;;5034173;28;20485;-78
2023/01/25 12:39:21;;;;;;;52.10;19.23;;;;;;;;;;5033039;28;20060;-78
2023/01/25 12:42:05;;;;;;;54.50;20.13;;;;;;;;;;5036169;28;20045;-79
2023/01/25 12:44:34;;;;;;;51.45;20.08;;;;;;;;;;5033854;28;20046;-79
2023/01/25 12:47:10;;;;;;;54.13;20.05;;;;;;;;;;5033989;28;20140;-78
2023/01/25 12:49:52;;;;;;;58.33;20.98;;;;;;;;;;5033334;28;20045;-79
2023/01/25 12:52:39;;;;;;;60.72;22.95;;;;;;;;;;5033208;28;20188;-78
2023/01/25 12:55:11;;;;;;;60.42;21.38;;;;;;;;;;5032863;28;20049;-79
2023/01/25 12:57:40;;;;;;;60.78;21.88;;;;;;;;;;5033170;28;20218;-78
2023/01/25 13:00:25;;;;;;;63.63;23.55;;;;;;;;;;5032414;28;20057;-78
2023/01/25 13:03:01;;;;;;;63.93;24.77;;;;;;;;;;5032512;28;20528;-78
2023/01/25 13:05:39;;;;;;;70.10;23.98;;;;;;;;;;5032218;28;20281;-79
2023/01/25 13:08:25;;;;;;;67.53;23.92;;;;;;;;;;5030565;28;20046;-79
2023/01/25 13:11:05;;;;;;;67.60;24.92;;;;;;;;;;5031199;28;20099;-79
2023/01/25 13:13:32;;;;;;;69.60;23.42;;;;;;;;;;5032087;28;20048;-79
2023/01/25 13:16:18;;;;;;;66.05;23.40;;;;;;;;;;5020974;28;20045;-79
2023/01/25 13:18:46;;;;;;;65.50;22.05;;;;;;;;;;5030046;28;20195;-79
2023/01/25 13:21:32;;;;;;;68.85;23.95;;;;;;;;;;5031341;28;20041;-79
2023/01/25 13:24:18;;;;;;;64.10;23.10;;;;;;;;;;5030189;28;20085;-79
2023/01/25 13:26:44;;;;;;;65.45;23.45;;;;;;;;;;5031620;28;20045;-79
2023/01/25 13:29:30;;;;;;;55.80;18.98;;;;;;;;;;5031130;28;20088;-79
2023/01/25 13:31:57;;;;;;;32.78;12.82;;;;;;;;;;5030732;28;20075;-79
2023/01/25 13:34:34;;;;;;;62.58;21.15;;;;;;;;;;5033625;28;20137;-78
2023/01/25 13:37:13;;;;;;;63.20;22.23;;;;;;;;;;5031863;28;20076;-78
2023/01/25 13:39:40;;;;;;;66.18;20.88;;;;;;;;;;5029677;28;20513;-78
2023/01/25 13:42:10;;;;;;;56.53;20.80;;;;;;;;;;5030461;28;20449;-78
2023/01/25 13:44:39;;;;;;;69.78;22.92;;;;;;;;;;5030744;28;20049;-77
2023/01/25 13:47:09;;;;;;;73.45;23.20;;;;;;;;;;5032627;28;20056;-78
2023/01/25 13:49:35;;;;;;;62.10;21.13;;;;;;;;;;5032002;28;20057;-77
2023/01/25 13:52:03;;;;;;;59.30;21.88;;;;;;;;;;5035925;28;20050;-78
2023/01/25 13:54:29;;;;;;;62.33;21.40;;;;;;;;;;5036004;28;20113;-78
2023/01/25 13:57:05;;;;;;;62.13;20.70;;;;;;;;;;5035275;28;20084;-78
2023/01/25 13:59:32;;;;;;;56.47;20.70;;;;;;;;;;5034132;28;20068;-78
2023/01/25 14:02:00;;;;;;;61.72;20.52;;;;;;;;;;5035739;28;20156;-78
2023/01/25 14:04:27;;;;;;;54.67;20.55;;;;;;;;;;5035746;28;20056;-78
2023/01/25 14:06:55;;;;;;;68.68;20.67;;;;;;;;;;5036742;28;20493;-78
2023/01/25 14:09:23;;;;;;;55.65;19.75;;;;;;;;;;5034748;28;20445;-78
2023/01/25 14:11:57;;;;;;;56.20;20.88;;;;;;;;;;5036208;28;20052;-78
2023/01/25 14:14:27;;;;;;;62.53;21.55;;;;;;;;;;5040154;28;20053;-77
2023/01/25 14:17:01;;;;;;;58.05;20.20;;;;;;;;;;5044609;28;20080;-78
2023/01/25 14:19:28;;;;;;;69.40;20.98;;;;;;;;;;5032751;28;20064;-77
2023/01/25 14:22:14;;;;;;;58.92;22.15;;;;;;;;;;5031481;28;20516;-78
2023/01/25 14:24:40;;;;;;;43.80;15.90;;;;;;;;;;5031513;28;20438;-77
2023/01/25 14:27:11;;;;;;;70.13;23.60;;;;;;;;;;5032442;28;20434;-77
2023/01/25 14:29:38;;;;;;;67.93;23.05;;;;;;;;;;5029673;28;20042;-77
2023/01/25 14:32:15;;;;;;;66.55;23.02;;;;;;;;;;5032089;28;20053;-77